createdAt,value
2017-10-30T09:55:21.445Z,13.60
2017-10-30T09:57:52.490Z,11.00
2017-10-30T10:00:26.424Z,10.90
2017-10-30T10:02:55.705Z,11.70
2017-10-30T10:05:25.665Z,11.10
2017-10-30T10:07:56.770Z,11.60
2017-10-30T10:10:25.914Z,11.60
2017-10-30T10:12:56.477Z,11.10
2017-10-30T10:15:25.632Z,11.00
2017-10-30T10:17:55.725Z,10.60
2017-10-30T10:20:24.987Z,10.50
2017-10-30T10:22:55.186Z,10.30
2017-10-30T10:25:24.263Z,10.40
2017-10-30T10:27:54.209Z,10.60
2017-10-30T10:30:23.436Z,10.50
2017-10-30T10:32:53.371Z,10.60
2017-10-30T10:35:22.449Z,10.60
2017-10-30T10:37:51.630Z,10.70
2017-10-30T10:40:21.505Z,10.40
2017-10-30T10:42:52.095Z,10.70
2017-10-30T10:45:21.200Z,10.70
2017-10-30T10:47:51.934Z,10.70
2017-10-30T10:50:20.998Z,10.60
2017-10-30T10:52:50.811Z,10.90
2017-10-30T10:55:20.031Z,10.80
2017-10-30T10:57:49.157Z,10.30
2017-10-30T11:00:19.703Z,9.80
2017-10-30T11:02:49.678Z,9.70
2017-10-30T11:05:18.871Z,9.90
2017-10-30T11:07:48.388Z,10.10
2017-10-30T11:10:18.131Z,10.40
2017-10-30T11:12:48.113Z,10.50
2017-10-30T11:15:18.420Z,10.50
2017-10-30T11:17:47.795Z,10.30
2017-10-30T11:20:17.835Z,10.10
2017-10-30T11:22:48.916Z,9.80
2017-10-30T11:25:18.954Z,9.70
2017-10-30T11:27:48.206Z,9.60
2017-10-30T11:30:18.300Z,11.40
2017-10-30T11:32:47.552Z,11.30
2017-10-30T11:35:18.880Z,12.70
2017-10-30T11:37:48.052Z,12.70
2017-10-30T11:40:17.232Z,12.90
2017-10-30T11:42:46.411Z,13.10
2017-10-30T11:45:16.505Z,12.80
2017-10-30T11:47:46.562Z,13.80
2017-10-30T11:50:16.365Z,13.70
2017-10-30T11:52:46.759Z,13.50
2017-10-30T11:55:17.360Z,12.90
2017-10-30T11:57:46.669Z,12.90
2017-10-30T12:00:19.052Z,12.90
2017-10-30T12:02:54.015Z,12.40
2017-10-30T12:05:23.891Z,11.60
2017-10-30T12:08:06.206Z,11.60
2017-10-30T12:10:35.332Z,11.50
2017-10-30T12:13:04.718Z,11.40
2017-10-30T12:15:37.479Z,11.60
2017-10-30T12:18:08.309Z,11.50
2017-10-30T12:20:37.612Z,11.80
2017-10-30T12:23:12.819Z,11.70
2017-10-30T12:25:42.760Z,11.50
2017-10-30T12:28:11.978Z,11.00
2017-10-30T12:30:41.890Z,10.60
2017-10-30T12:33:12.659Z,9.90
2017-10-30T12:35:42.723Z,9.80
2017-10-30T12:38:11.837Z,9.70
2017-10-30T12:40:41.273Z,9.50
2017-10-30T12:43:10.361Z,9.40
2017-10-30T12:45:39.647Z,9.50
2017-10-30T12:48:15.126Z,9.60
2017-10-30T12:50:50.643Z,9.60
2017-10-30T12:53:21.637Z,9.50
2017-10-30T12:56:07.546Z,9.70
2017-10-30T12:58:37.531Z,9.60
2017-10-30T13:01:09.995Z,9.60
2017-10-30T13:03:40.303Z,9.70
2017-10-30T13:06:09.539Z,9.90
2017-10-30T13:08:40.552Z,9.90
2017-10-30T13:11:09.751Z,9.90
2017-10-30T13:13:38.966Z,9.80
2017-10-30T13:16:08.220Z,9.80
2017-10-30T13:18:38.003Z,9.90
2017-10-30T13:21:08.029Z,10.00
2017-10-30T13:23:38.956Z,10.40
2017-10-30T13:26:07.999Z,10.40
2017-10-30T13:28:37.131Z,10.20
2017-10-30T13:31:06.646Z,10.00
2017-10-30T13:33:35.841Z,9.70
2017-10-30T13:36:05.070Z,9.50
2017-10-30T13:38:34.982Z,9.40
2017-10-30T13:41:04.931Z,9.20
2017-10-30T13:43:35.554Z,9.10
2017-10-30T13:46:05.202Z,9.10
2017-10-30T13:48:36.487Z,9.20
2017-10-30T13:51:06.388Z,9.10
2017-10-30T13:53:35.432Z,9.00
2017-10-30T13:56:05.485Z,9.00
2017-10-30T13:58:34.577Z,8.90
2017-10-30T14:01:04.357Z,8.90
2017-10-30T14:03:36.842Z,8.90
2017-10-30T14:06:06.818Z,8.70
2017-10-30T14:08:35.991Z,8.50
2017-10-30T14:11:05.797Z,8.60
2017-10-30T14:13:36.321Z,9.90
2017-10-30T14:16:05.528Z,9.90
2017-10-30T14:18:35.541Z,10.00
2017-10-30T14:21:06.257Z,9.70
2017-10-30T14:23:36.207Z,9.30
2017-10-30T14:26:06.133Z,9.20
2017-10-30T14:28:35.956Z,9.00
2017-10-30T14:31:05.046Z,8.90
2017-10-30T14:33:35.000Z,8.80
2017-10-30T14:36:04.962Z,8.70
2017-10-30T14:38:36.000Z,8.50
2017-10-30T14:41:06.064Z,8.40
2017-10-30T14:43:44.126Z,8.30
2017-10-30T14:46:15.893Z,8.20
2017-10-30T14:48:46.703Z,8.20
2017-10-30T14:51:16.856Z,8.20
2017-10-30T14:53:46.852Z,8.20
2017-10-30T14:56:18.399Z,8.20
2017-10-30T14:58:48.318Z,8.20
2017-10-30T15:01:18.987Z,8.10
2017-10-30T15:03:49.625Z,8.10
2017-10-30T15:06:19.859Z,8.10
2017-10-30T15:08:50.378Z,8.00
2017-10-30T15:11:20.598Z,8.00
2017-10-30T15:13:50.078Z,8.00
2017-10-30T15:16:20.034Z,7.70
2017-10-30T15:18:51.968Z,7.60
2017-10-30T15:21:24.053Z,7.60
2017-10-30T15:23:54.068Z,7.50
2017-10-30T15:26:24.906Z,7.50
2017-10-30T15:28:54.844Z,7.50
2017-10-30T15:31:25.284Z,7.40
2017-10-30T15:33:55.234Z,7.30
2017-10-30T15:36:24.375Z,7.40
2017-10-30T15:38:54.619Z,7.30
2017-10-30T15:41:25.914Z,7.30
2017-10-30T15:43:55.041Z,7.20
2017-10-30T15:46:41.041Z,7.30
2017-10-30T15:49:10.947Z,7.20
2017-10-30T15:51:40.915Z,7.20
2017-10-30T15:54:10.745Z,7.20
2017-10-30T15:56:50.066Z,7.20
2017-10-30T15:59:19.285Z,7.10
2017-10-30T16:01:49.734Z,7.10
2017-10-30T16:04:28.427Z,7.00
2017-10-30T16:09:37.767Z,7.10
2017-10-30T16:12:06.901Z,7.10
2017-10-30T16:14:37.107Z,7.00
2017-10-30T16:17:06.446Z,7.10
2017-10-30T16:19:36.376Z,7.10
2017-10-30T16:22:26.612Z,7.30
2017-10-30T16:53:50.662Z,7.30
2017-10-30T16:57:01.856Z,7.40
2017-10-30T16:59:45.253Z,7.30
2017-10-30T17:02:36.002Z,7.30
2017-10-30T17:05:57.352Z,7.20
2017-10-30T17:08:51.687Z,7.10
2017-10-30T17:28:25.377Z,7.10
2017-10-30T17:30:54.945Z,7.00
2017-10-30T17:36:15.187Z,6.90
2017-10-30T17:38:45.181Z,6.80
2017-10-30T17:41:14.937Z,6.80
2017-10-30T17:43:44.918Z,6.80
2017-10-30T17:46:15.549Z,6.80
2017-10-30T17:48:45.925Z,6.70
2017-10-30T17:51:15.157Z,6.70
2017-10-30T17:53:45.055Z,6.70
2017-10-30T17:56:15.334Z,6.70
2017-10-30T17:58:44.618Z,6.70
2017-10-30T18:01:14.806Z,6.80
2017-10-30T18:03:44.095Z,6.70
2017-10-30T18:06:15.402Z,6.70
2017-10-30T18:08:45.364Z,6.80
2017-10-30T18:11:19.437Z,6.70
2017-10-30T18:13:48.670Z,6.80
2017-10-30T18:16:18.855Z,6.80
2017-10-30T18:18:48.144Z,6.80
2017-10-30T18:21:17.449Z,6.80
2017-10-30T18:23:51.867Z,6.80
2017-10-30T18:26:25.895Z,6.80
2017-10-30T18:28:59.649Z,6.70
2017-10-30T18:31:29.947Z,6.80
2017-10-30T18:34:03.790Z,6.80
2017-10-30T18:36:33.078Z,6.80
2017-10-30T18:39:05.371Z,6.90
2017-10-30T18:41:37.081Z,6.80
2017-10-30T18:44:06.145Z,6.80
2017-10-30T18:46:36.271Z,6.90
2017-10-30T18:49:06.555Z,6.90
2017-10-30T18:51:36.680Z,6.90
2017-10-30T18:54:06.697Z,6.80
2017-10-30T18:56:36.817Z,6.90
2017-10-30T18:59:06.710Z,6.80
2017-10-30T19:01:36.757Z,6.80
2017-10-30T19:04:06.013Z,6.90
2017-10-30T19:06:36.475Z,6.90
2017-10-30T19:09:06.464Z,6.80
2017-10-30T19:11:36.301Z,6.80
2017-10-30T19:14:14.123Z,6.80
2017-10-30T19:16:43.658Z,6.70
2017-10-30T19:19:14.300Z,6.80
2017-10-30T19:21:44.265Z,6.80
2017-10-30T19:24:16.317Z,6.80
2017-10-30T19:26:46.964Z,6.70
2017-10-30T19:29:16.955Z,6.70
2017-10-30T19:31:47.165Z,6.70
2017-10-30T19:34:16.321Z,6.60
2017-10-30T19:36:45.445Z,6.70
2017-10-30T19:39:15.596Z,6.70
2017-10-30T19:41:44.810Z,6.70
2017-10-30T19:44:16.063Z,6.70
2017-10-30T19:46:45.214Z,6.70
2017-10-30T19:49:14.413Z,6.70
2017-10-30T19:51:44.410Z,6.70
2017-10-30T19:54:13.646Z,6.60
2017-10-30T19:56:42.991Z,6.80
2017-10-30T19:59:12.098Z,6.80
2017-10-30T20:01:41.661Z,6.70
2017-10-30T20:04:11.479Z,6.70
2017-10-30T20:06:47.264Z,6.70
2017-10-30T20:09:20.679Z,6.60
2017-10-30T20:12:53.101Z,6.70
2017-10-30T20:15:23.287Z,6.70
2017-10-30T20:17:53.205Z,6.70
2017-10-30T20:20:23.171Z,6.70
2017-10-30T20:22:53.203Z,6.60
2017-10-30T20:25:22.363Z,6.70
2017-10-30T20:27:52.263Z,6.60
2017-10-30T20:30:22.262Z,6.60
2017-10-30T20:32:52.372Z,6.60
2017-10-30T20:35:21.814Z,6.60
2017-10-30T20:37:53.123Z,6.60
2017-10-30T20:40:22.426Z,6.60
2017-10-30T20:42:51.666Z,6.60
2017-10-30T20:45:21.829Z,6.50
2017-10-30T20:47:55.271Z,6.50
2017-10-30T20:50:25.983Z,6.50
2017-10-30T20:52:55.962Z,6.50
2017-10-30T20:55:26.051Z,6.50
2017-10-30T20:57:55.728Z,6.40
2017-10-30T21:00:25.185Z,6.50
2017-10-30T21:02:55.094Z,6.50
2017-10-30T21:05:24.453Z,6.40
2017-10-30T21:07:53.729Z,6.40
2017-10-30T21:10:23.038Z,6.40
2017-10-30T21:12:52.406Z,6.40
2017-10-30T21:15:21.553Z,6.40
2017-10-30T21:17:50.699Z,6.40
2017-10-30T21:20:19.929Z,6.40
2017-10-30T21:22:49.244Z,6.40
2017-10-30T21:27:24.618Z,6.40
2017-10-30T21:29:54.935Z,6.30
2017-10-30T21:32:25.363Z,6.30
2017-10-30T21:34:56.449Z,6.30
2017-10-30T21:37:25.480Z,6.20
2017-10-30T21:39:54.677Z,6.30
2017-10-30T21:42:23.991Z,6.30
2017-10-30T21:44:53.170Z,6.30
2017-10-30T21:47:23.339Z,6.30
2017-10-30T21:49:53.270Z,6.30
2017-10-30T21:52:24.003Z,6.20
2017-10-30T21:54:55.694Z,6.30
2017-10-30T21:57:24.854Z,6.20
2017-10-30T21:59:53.929Z,6.20
2017-10-30T22:02:24.328Z,6.20
2017-10-30T22:04:53.525Z,6.20
2017-10-30T22:07:22.911Z,6.20
2017-10-30T22:09:52.037Z,6.20
2017-10-30T22:12:22.005Z,6.00
2017-10-30T22:14:51.748Z,5.90
2017-10-30T22:17:21.142Z,6.00
2017-10-30T22:19:50.242Z,6.00
2017-10-30T22:22:19.373Z,5.90
2017-10-30T22:24:49.420Z,5.90
2017-10-30T22:27:18.673Z,5.90
2017-10-30T22:29:49.519Z,5.90
2017-10-30T22:32:19.372Z,5.90
2017-10-30T22:34:48.529Z,5.90
2017-10-30T22:37:18.462Z,5.90
2017-10-30T22:39:47.482Z,5.80
2017-10-30T22:42:17.621Z,5.90
2017-10-30T22:44:46.694Z,5.80
2017-10-30T22:47:15.843Z,5.70
2017-10-30T22:49:45.648Z,5.70
2017-10-30T22:52:15.779Z,5.60
2017-10-30T22:54:45.533Z,5.60
2017-10-30T22:57:14.722Z,5.50
2017-10-30T22:59:43.751Z,5.50
2017-10-30T23:02:12.986Z,5.40
2017-10-30T23:04:42.973Z,5.40
2017-10-30T23:07:13.214Z,5.30
2017-10-30T23:09:43.050Z,5.40
2017-10-30T23:12:12.993Z,5.40
2017-10-30T23:14:42.660Z,5.30
2017-10-30T23:17:16.163Z,5.30
2017-10-30T23:19:45.148Z,5.40
2017-10-30T23:22:21.477Z,5.50
2017-10-30T23:24:51.344Z,5.50
2017-10-30T23:27:20.420Z,5.40
2017-10-30T23:29:50.374Z,5.50
2017-10-30T23:32:19.505Z,5.50
2017-10-30T23:34:48.565Z,5.50
2017-10-30T23:37:19.548Z,5.50
2017-10-30T23:39:48.586Z,5.50
2017-10-30T23:42:19.724Z,5.60
2017-10-30T23:44:49.258Z,5.60
2017-10-30T23:47:18.380Z,5.50
2017-10-30T23:49:47.406Z,5.50
2017-10-30T23:52:16.514Z,5.50
2017-10-30T23:54:45.552Z,5.60
2017-10-30T23:57:14.920Z,5.60
2017-10-30T23:59:58.133Z,5.60
